createdAt,value
2023-05-05T00:00:28.674Z,107.35
2023-05-05T00:01:28.710Z,107.22
2023-05-05T00:02:28.851Z,107.61
2023-05-05T00:03:28.914Z,106.97
2023-05-05T00:04:28.863Z,105.21
2023-05-05T00:05:28.937Z,103.44
2023-05-05T00:06:28.970Z,102.72
2023-05-05T00:07:29.017Z,106.45
2023-05-05T00:08:29.099Z,105.72
2023-05-05T00:09:29.182Z,105.04
2023-05-05T00:10:29.210Z,100.77
2023-05-05T00:11:29.252Z,100.02
2023-05-05T00:12:29.407Z,101.56
2023-05-05T00:13:29.359Z,100.30
2023-05-05T00:14:29.404Z,98.99
2023-05-05T00:15:29.450Z,102.87
2023-05-05T00:16:29.556Z,100.29
2023-05-05T00:17:29.615Z,100.05
2023-05-05T00:18:29.638Z,99.17
2023-05-05T00:19:29.679Z,100.15
2023-05-05T00:20:29.760Z,98.24
2023-05-05T00:21:29.817Z,100.33
2023-05-05T00:22:29.882Z,99.44
2023-05-05T00:23:29.894Z,101.79
2023-05-05T00:24:29.966Z,98.52
2023-05-05T00:25:29.999Z,97.93
2023-05-05T00:26:30.088Z,98.20
2023-05-05T00:27:30.144Z,99.57
2023-05-05T00:28:30.205Z,98.68
2023-05-05T00:29:30.265Z,98.83
2023-05-05T00:30:30.313Z,98.94
2023-05-05T00:31:30.555Z,97.46
2023-05-05T00:32:30.491Z,97.15
2023-05-05T00:33:30.557Z,96.28
2023-05-05T00:34:30.594Z,96.91
2023-05-05T00:35:30.647Z,95.56
2023-05-05T00:36:30.684Z,97.29
2023-05-05T00:37:30.760Z,98.37
2023-05-05T00:38:30.799Z,98.25
2023-05-05T00:39:30.877Z,97.53
2023-05-05T00:40:30.928Z,100.26
2023-05-05T00:41:31.005Z,99.03
2023-05-05T00:42:31.057Z,95.83
2023-05-05T00:43:31.114Z,98.09
2023-05-05T00:44:31.179Z,96.47
2023-05-05T00:45:31.201Z,96.19
2023-05-05T00:46:31.314Z,95.37
2023-05-05T00:47:31.366Z,98.49
2023-05-05T00:48:31.384Z,98.48
2023-05-05T00:49:31.514Z,98.41
2023-05-05T00:50:31.545Z,98.54
2023-05-05T00:51:31.593Z,97.63
2023-05-05T00:52:31.661Z,98.73
2023-05-05T00:53:31.701Z,99.17
2023-05-05T00:54:31.774Z,99.92
2023-05-05T00:55:31.816Z,97.48
2023-05-05T00:56:31.905Z,98.62
2023-05-05T00:57:31.959Z,97.81
2023-05-05T00:58:32.007Z,96.38
2023-05-05T00:59:32.071Z,95.77
2023-05-05T01:00:32.142Z,95.90
2023-05-05T01:01:32.219Z,95.06
2023-05-05T01:02:32.355Z,93.94
2023-05-05T01:03:32.384Z,93.54
2023-05-05T01:04:32.380Z,92.88
2023-05-05T01:05:32.421Z,92.42
2023-05-05T01:06:32.510Z,91.67
2023-05-05T01:07:32.553Z,92.11
2023-05-05T01:08:32.616Z,94.81
2023-05-05T01:09:32.686Z,95.15
2023-05-05T01:10:32.727Z,93.12
2023-05-05T01:11:32.775Z,94.07
2023-05-05T01:12:32.895Z,94.58
2023-05-05T01:13:32.880Z,96.72
2023-05-05T01:14:32.952Z,95.87
2023-05-05T01:15:33.003Z,95.40
2023-05-05T01:16:33.135Z,94.20
2023-05-05T01:17:33.176Z,96.19
2023-05-05T01:18:33.220Z,95.49
2023-05-05T01:19:33.266Z,95.96
2023-05-05T01:20:33.308Z,94.71
2023-05-05T01:21:33.402Z,93.95
2023-05-05T01:22:33.434Z,94.87
2023-05-05T01:23:33.480Z,94.57
2023-05-05T01:24:33.570Z,96.72
2023-05-05T01:25:33.677Z,94.86
2023-05-05T01:26:33.698Z,95.01
2023-05-05T01:27:33.775Z,94.43
2023-05-05T01:28:33.813Z,95.03
2023-05-05T01:29:33.852Z,95.36
2023-05-05T01:30:33.918Z,97.75
2023-05-05T01:31:34.062Z,94.78
2023-05-05T01:32:34.051Z,96.46
2023-05-05T01:33:34.121Z,94.85
2023-05-05T01:34:34.210Z,92.54
2023-05-05T01:35:34.284Z,95.09
2023-05-05T01:36:34.351Z,94.17
2023-05-05T01:37:34.377Z,93.28
2023-05-05T01:38:34.434Z,95.97
2023-05-05T01:39:34.518Z,94.21
2023-05-05T01:40:34.559Z,95.28
2023-05-05T01:41:34.629Z,92.67
2023-05-05T01:42:35.338Z,93.34
2023-05-05T01:43:34.729Z,89.36
2023-05-05T01:44:34.808Z,91.50
2023-05-05T01:45:34.945Z,90.78
2023-05-05T01:46:34.922Z,92.59
2023-05-05T01:47:34.968Z,91.51
2023-05-05T01:48:35.028Z,93.04
2023-05-05T01:49:35.083Z,92.37
2023-05-05T01:50:35.214Z,89.24
2023-05-05T01:51:35.200Z,90.31
2023-05-05T01:52:35.278Z,89.05
2023-05-05T01:53:35.341Z,90.06
2023-05-05T01:54:35.411Z,91.03
2023-05-05T01:55:35.464Z,91.44
2023-05-05T01:56:35.516Z,91.59
2023-05-05T01:57:35.578Z,94.78
2023-05-05T01:58:35.633Z,91.95
2023-05-05T01:59:35.694Z,90.86
2023-05-05T02:00:35.767Z,89.40
2023-05-05T02:01:35.891Z,90.37
2023-05-05T02:02:35.952Z,88.31
2023-05-05T02:03:35.968Z,87.79
2023-05-05T02:04:36.001Z,86.55
2023-05-05T02:05:36.040Z,86.70
2023-05-05T02:06:36.107Z,86.09
2023-05-05T02:07:36.193Z,86.90
2023-05-05T02:08:36.240Z,85.99
2023-05-05T02:09:36.352Z,87.64
2023-05-05T02:10:36.350Z,86.23
2023-05-05T02:11:36.422Z,87.75
2023-05-05T02:12:36.476Z,85.81
2023-05-05T02:13:36.561Z,87.18
2023-05-05T02:14:36.602Z,86.37
2023-05-05T02:15:36.723Z,89.75
2023-05-05T02:16:36.720Z,88.47
2023-05-05T02:17:36.875Z,86.65
2023-05-05T02:18:36.827Z,84.85
2023-05-05T02:19:36.888Z,87.04
2023-05-05T02:20:36.972Z,85.15
2023-05-05T02:21:37.051Z,85.55
2023-05-05T02:22:37.069Z,87.99
2023-05-05T02:23:37.151Z,86.66
2023-05-05T02:24:37.188Z,87.72
2023-05-05T02:25:37.266Z,87.47
2023-05-05T02:26:37.326Z,84.74
2023-05-05T02:27:37.400Z,84.87
2023-05-05T02:28:37.456Z,86.29
2023-05-05T02:29:37.508Z,85.41
2023-05-05T02:30:37.586Z,84.11
2023-05-05T02:31:37.667Z,85.11
2023-05-05T02:32:37.715Z,84.94
2023-05-05T02:33:37.720Z,84.36
2023-05-05T02:34:37.773Z,85.82
2023-05-05T02:35:37.822Z,84.91
2023-05-05T02:36:37.906Z,84.46
2023-05-05T02:37:37.939Z,84.19
2023-05-05T02:38:37.999Z,85.92
2023-05-05T02:39:38.051Z,82.93
2023-05-05T02:40:38.115Z,82.83
2023-05-05T02:41:38.179Z,83.57
2023-05-05T02:42:38.307Z,85.20
2023-05-05T02:43:38.278Z,82.52
2023-05-05T02:44:38.359Z,85.11
2023-05-05T02:45:38.373Z,84.56
2023-05-05T02:46:38.554Z,82.31
2023-05-05T02:47:38.630Z,83.52
2023-05-05T02:48:38.601Z,82.93
2023-05-05T02:49:38.638Z,83.70
2023-05-05T02:50:38.699Z,83.04
2023-05-05T02:51:38.752Z,82.26
2023-05-05T02:52:38.835Z,83.10
2023-05-05T02:53:38.896Z,82.86
2023-05-05T02:54:38.926Z,80.68
2023-05-05T02:55:38.962Z,81.89
2023-05-05T02:56:39.027Z,81.08
2023-05-05T02:57:39.060Z,82.27
2023-05-05T02:58:39.117Z,80.15
2023-05-05T02:59:39.153Z,81.96
2023-05-05T03:00:39.208Z,79.69
2023-05-05T03:01:39.300Z,82.03
2023-05-05T03:02:39.360Z,83.00
2023-05-05T03:03:39.405Z,79.76
2023-05-05T03:04:39.390Z,80.30
2023-05-05T03:05:39.430Z,79.90
2023-05-05T03:06:39.433Z,79.04
2023-05-05T03:07:39.475Z,80.39
2023-05-05T03:08:39.538Z,82.94
2023-05-05T03:09:39.568Z,80.83
2023-05-05T03:10:39.611Z,80.64
2023-05-05T03:11:39.620Z,78.20
2023-05-05T03:12:39.686Z,77.56
2023-05-05T03:13:39.718Z,78.61
2023-05-05T03:14:39.728Z,78.96
2023-05-05T03:15:39.829Z,79.31
2023-05-05T03:16:39.951Z,78.60
2023-05-05T03:17:39.913Z,78.56
2023-05-05T03:18:39.941Z,79.16
2023-05-05T03:19:39.951Z,79.82
2023-05-05T03:20:40.018Z,78.25
2023-05-05T03:21:40.089Z,77.08
2023-05-05T03:22:40.113Z,77.29
2023-05-05T03:23:40.174Z,78.05
2023-05-05T03:24:40.251Z,77.92
2023-05-05T03:25:40.283Z,77.01
2023-05-05T03:26:40.322Z,78.02
2023-05-05T03:27:40.367Z,77.22
2023-05-05T03:28:40.382Z,76.12
2023-05-05T03:29:40.432Z,77.78
2023-05-05T03:30:40.465Z,75.31
2023-05-05T03:31:40.545Z,76.34
2023-05-05T03:32:40.566Z,75.58
2023-05-05T03:33:40.556Z,73.81
2023-05-05T03:34:40.567Z,77.63
2023-05-05T03:35:41.876Z,76.97
2023-05-05T03:36:40.597Z,75.33
2023-05-05T03:37:40.580Z,75.01
2023-05-05T03:38:40.553Z,75.21
2023-05-05T03:39:40.603Z,78.20
2023-05-05T03:40:44.248Z,74.26
2023-05-05T03:41:40.638Z,74.41
2023-05-05T03:42:40.628Z,74.73
2023-05-05T03:43:40.596Z,74.55
2023-05-05T03:44:40.613Z,75.40
2023-05-05T03:45:40.629Z,75.08
2023-05-05T03:46:40.597Z,76.71
2023-05-05T03:47:40.581Z,74.94
2023-05-05T03:48:40.559Z,74.12
2023-05-05T03:49:40.592Z,73.39
2023-05-05T03:50:40.579Z,74.49
2023-05-05T03:51:40.551Z,73.76
2023-05-05T03:52:40.552Z,75.32
2023-05-05T03:53:40.535Z,72.35
2023-05-05T03:54:40.566Z,74.42
2023-05-05T03:55:40.558Z,72.86
2023-05-05T03:56:40.557Z,73.34
2023-05-05T03:57:40.520Z,75.13
2023-05-05T03:58:40.506Z,72.51
2023-05-05T03:59:40.522Z,72.21
2023-05-05T04:00:40.485Z,74.21
2023-05-05T04:01:40.495Z,71.93
2023-05-05T04:02:40.532Z,69.82
2023-05-05T04:03:40.523Z,71.37
2023-05-05T04:04:40.480Z,74.37
2023-05-05T04:05:40.474Z,70.62
2023-05-05T04:06:40.446Z,69.30
2023-05-05T04:07:40.458Z,67.73
2023-05-05T04:08:40.469Z,71.08
2023-05-05T04:09:40.417Z,69.67
2023-05-05T04:10:40.428Z,68.61
2023-05-05T04:11:40.460Z,70.70
2023-05-05T04:12:40.444Z,68.71
2023-05-05T04:13:40.433Z,66.56
2023-05-05T04:14:40.420Z,68.69
2023-05-05T04:15:40.387Z,69.82
2023-05-05T04:16:40.393Z,69.24
2023-05-05T04:17:40.398Z,67.56
2023-05-05T04:18:40.386Z,67.84
2023-05-05T04:19:40.444Z,69.28
2023-05-05T04:20:40.368Z,69.44
2023-05-05T04:21:40.390Z,67.50
2023-05-05T04:22:40.366Z,69.53
2023-05-05T04:23:40.339Z,68.88
2023-05-05T04:24:40.325Z,68.48
2023-05-05T04:25:40.325Z,68.33
2023-05-05T04:26:40.310Z,67.44
2023-05-05T04:27:40.321Z,66.02
2023-05-05T04:28:40.354Z,67.42
2023-05-05T04:29:40.374Z,67.12
2023-05-05T04:30:40.415Z,67.99
2023-05-05T04:31:40.483Z,66.85
2023-05-05T04:32:40.512Z,65.00
2023-05-05T04:33:40.507Z,67.08
2023-05-05T04:34:40.514Z,68.44
2023-05-05T04:35:40.569Z,65.08
2023-05-05T04:36:40.653Z,61.73
2023-05-05T04:37:40.596Z,62.05
2023-05-05T04:38:40.589Z,62.59
2023-05-05T04:39:40.566Z,63.07
2023-05-05T04:40:40.555Z,64.06
2023-05-05T04:41:40.583Z,65.97
2023-05-05T04:42:40.551Z,63.02
2023-05-05T04:43:40.532Z,65.58
2023-05-05T04:44:40.553Z,63.34
2023-05-05T04:45:40.532Z,64.58
2023-05-05T04:46:40.793Z,63.78
2023-05-05T04:47:40.773Z,64.07
2023-05-05T04:48:40.680Z,62.05
2023-05-05T04:49:40.731Z,65.26
2023-05-05T04:50:40.804Z,61.18
2023-05-05T04:51:40.892Z,59.51
2023-05-05T04:52:40.871Z,59.94
2023-05-05T04:53:40.900Z,58.20
2023-05-05T04:54:40.939Z,58.92
2023-05-05T04:55:40.894Z,56.85
2023-05-05T04:56:40.927Z,57.72
2023-05-05T04:57:40.934Z,59.97
2023-05-05T04:58:40.919Z,63.11
2023-05-05T04:59:40.916Z,63.07
2023-05-05T05:00:40.918Z,62.60
2023-05-05T05:01:40.977Z,60.36
2023-05-05T05:02:41.018Z,61.23
2023-05-05T05:03:40.947Z,63.97
2023-05-05T05:04:40.940Z,64.44
2023-05-05T05:05:40.947Z,65.14
2023-05-05T05:06:40.931Z,66.22
2023-05-05T05:07:40.976Z,67.61
2023-05-05T05:08:40.946Z,68.81
2023-05-05T05:09:40.956Z,66.77
2023-05-05T05:10:40.964Z,69.99
2023-05-05T05:11:40.961Z,72.62
2023-05-05T05:12:40.961Z,72.35
2023-05-05T05:13:40.941Z,73.88
2023-05-05T05:14:40.964Z,73.83
2023-05-05T05:15:40.960Z,74.32
2023-05-05T05:16:41.050Z,76.25
2023-05-05T05:17:40.997Z,76.04
2023-05-05T05:18:40.996Z,77.15
2023-05-05T05:19:40.958Z,76.49
2023-05-05T05:20:40.963Z,79.56
2023-05-05T05:21:40.973Z,77.11
2023-05-05T05:22:41.014Z,79.82
2023-05-05T05:23:40.981Z,79.06
2023-05-05T05:24:40.975Z,78.52
2023-05-05T05:25:40.986Z,78.79
2023-05-05T05:26:40.994Z,81.88
2023-05-05T05:27:40.961Z,79.16
2023-05-05T05:28:40.964Z,79.47
2023-05-05T05:29:40.958Z,82.05
2023-05-05T05:30:40.967Z,80.49
2023-05-05T05:31:41.030Z,80.04
2023-05-05T05:32:40.977Z,83.65
2023-05-05T05:33:40.966Z,82.93
2023-05-05T05:34:40.952Z,82.58
2023-05-05T05:35:40.964Z,84.92
2023-05-05T05:36:40.941Z,84.65
2023-05-05T05:37:42.969Z,85.62
2023-05-05T05:38:40.933Z,81.15
2023-05-05T05:39:43.312Z,82.53
2023-05-05T05:40:40.914Z,82.65
2023-05-05T05:41:40.939Z,84.21
2023-05-05T05:42:40.889Z,81.68
2023-05-05T05:43:40.891Z,83.51
2023-05-05T05:44:40.919Z,84.11
2023-05-05T05:45:40.977Z,84.29
2023-05-05T05:46:40.987Z,86.06
2023-05-05T05:47:40.921Z,87.12
2023-05-05T05:48:40.863Z,88.26
2023-05-05T05:49:40.851Z,94.47
2023-05-05T05:50:40.848Z,97.57
2023-05-05T05:51:40.846Z,103.00
2023-05-05T05:52:40.856Z,106.91
2023-05-05T05:53:40.875Z,112.37
2023-05-05T05:54:40.841Z,112.68
2023-05-05T05:55:40.803Z,119.38
2023-05-05T05:56:40.814Z,122.32
2023-05-05T05:57:40.783Z,125.29
2023-05-05T05:58:40.808Z,130.23
2023-05-05T05:59:40.796Z,126.64
2023-05-05T06:00:40.783Z,137.53
2023-05-05T06:01:40.917Z,139.66
2023-05-05T06:02:40.850Z,144.25
2023-05-05T06:03:40.901Z,148.78
2023-05-05T06:04:40.927Z,150.01
2023-05-05T06:05:40.751Z,149.74
2023-05-05T06:06:40.930Z,154.92
2023-05-05T06:07:40.736Z,159.96
2023-05-05T06:08:40.708Z,160.33
2023-05-05T06:09:40.727Z,167.47
2023-05-05T06:10:40.703Z,166.84
2023-05-05T06:11:40.928Z,173.65
2023-05-05T06:12:40.754Z,172.55
2023-05-05T06:13:40.676Z,176.57
2023-05-05T06:14:40.705Z,181.17
2023-05-05T06:15:40.809Z,188.46
2023-05-05T06:16:40.693Z,187.04
2023-05-05T06:17:40.699Z,192.13
2023-05-05T06:18:40.634Z,193.57
2023-05-05T06:19:40.673Z,194.02
2023-05-05T06:20:40.628Z,198.58
2023-05-05T06:21:40.650Z,203.12
2023-05-05T06:22:40.633Z,202.20
2023-05-05T06:23:40.618Z,204.18
2023-05-05T06:24:40.615Z,205.67
2023-05-05T06:25:40.595Z,208.39
2023-05-05T06:26:40.609Z,211.36
2023-05-05T06:27:40.601Z,209.47
2023-05-05T06:28:40.587Z,212.69
2023-05-05T06:29:40.597Z,215.30
2023-05-05T06:30:40.576Z,214.92
2023-05-05T06:31:40.681Z,216.05
2023-05-05T06:32:40.620Z,219.48
2023-05-05T06:33:40.590Z,214.86
2023-05-05T06:34:40.532Z,219.05
2023-05-05T06:35:40.570Z,220.37
2023-05-05T06:36:40.967Z,222.00
2023-05-05T06:37:40.537Z,223.43
2023-05-05T06:38:40.523Z,226.65
2023-05-05T06:39:40.518Z,222.97
2023-05-05T06:40:40.524Z,225.68
2023-05-05T06:41:40.516Z,228.71
2023-05-05T06:42:40.494Z,230.82
2023-05-05T06:43:40.496Z,230.58
2023-05-05T06:44:40.522Z,233.22
2023-05-05T06:45:41.055Z,232.38
2023-05-05T06:46:40.944Z,238.00
2023-05-05T06:47:40.493Z,243.74
2023-05-05T06:48:40.452Z,245.76
2023-05-05T06:49:40.454Z,248.21
2023-05-05T06:50:40.432Z,243.44
2023-05-05T06:51:42.213Z,243.40
2023-05-05T06:52:40.423Z,247.88
2023-05-05T06:53:40.455Z,249.79
2023-05-05T06:54:40.466Z,243.58
2023-05-05T06:55:40.464Z,245.94
2023-05-05T06:56:40.507Z,243.67
2023-05-05T06:57:40.525Z,241.87
2023-05-05T06:58:40.526Z,247.32
2023-05-05T06:59:40.754Z,248.01
2023-05-05T07:00:40.578Z,246.32
2023-05-05T07:01:40.971Z,244.52
2023-05-05T07:02:40.654Z,241.02
2023-05-05T07:03:40.679Z,242.13
2023-05-05T07:04:40.640Z,239.55
2023-05-05T07:05:40.676Z,235.28
2023-05-05T07:06:40.959Z,233.79
2023-05-05T07:07:40.699Z,225.32
2023-05-05T07:08:40.720Z,225.47
2023-05-05T07:09:40.698Z,220.61
2023-05-05T07:10:41.408Z,225.85
2023-05-05T07:11:40.721Z,219.29
2023-05-05T07:12:40.735Z,221.53
2023-05-05T07:13:40.736Z,220.35
2023-05-05T07:14:40.741Z,218.19
2023-05-05T07:15:40.856Z,218.64
2023-05-05T07:16:40.797Z,222.65
2023-05-05T07:17:40.702Z,218.21
2023-05-05T07:18:40.709Z,213.88
2023-05-05T07:19:40.674Z,215.63
2023-05-05T07:20:40.729Z,212.81
2023-05-05T07:21:40.711Z,208.65
2023-05-05T07:22:40.739Z,204.60
2023-05-05T07:23:40.692Z,208.61
2023-05-05T07:24:40.676Z,204.73
2023-05-05T07:25:40.717Z,209.81
2023-05-05T07:26:40.697Z,210.98
2023-05-05T07:27:40.707Z,218.38
2023-05-05T07:28:40.701Z,216.39
2023-05-05T07:29:40.708Z,215.01
2023-05-05T07:30:40.717Z,209.54
2023-05-05T07:31:40.926Z,210.73
2023-05-05T07:32:40.761Z,210.55
2023-05-05T07:33:40.702Z,208.53
2023-05-05T07:34:40.691Z,204.77
2023-05-05T07:35:40.679Z,202.74
2023-05-05T07:36:40.681Z,204.02
2023-05-05T07:37:40.669Z,215.26
2023-05-05T07:38:40.703Z,210.92
2023-05-05T07:39:40.678Z,211.88
2023-05-05T07:40:40.660Z,205.01
2023-05-05T07:41:40.961Z,199.04
2023-05-05T07:42:40.676Z,211.73
2023-05-05T07:43:41.697Z,201.36
2023-05-05T07:44:40.684Z,194.16
2023-05-05T07:45:40.798Z,193.55
2023-05-05T07:46:40.739Z,195.37
2023-05-05T07:47:40.875Z,197.25
2023-05-05T07:48:40.744Z,198.85
2023-05-05T07:49:40.751Z,199.96
2023-05-05T07:50:40.723Z,198.41
2023-05-05T07:51:40.770Z,205.87
2023-05-05T07:53:40.793Z,193.61
2023-05-05T07:54:40.749Z,188.21
2023-05-05T07:55:40.754Z,184.61
2023-05-05T07:56:40.740Z,187.80
2023-05-05T07:57:40.735Z,189.17
2023-05-05T07:58:40.716Z,186.57
2023-05-05T07:59:40.714Z,185.45
2023-05-05T08:00:40.708Z,186.57
2023-05-05T08:01:40.751Z,182.70
2023-05-05T08:02:40.705Z,178.10
2023-05-05T08:03:40.880Z,178.99
2023-05-05T08:04:40.700Z,179.36
2023-05-05T08:05:40.830Z,175.58
2023-05-05T08:06:40.662Z,176.79
2023-05-05T08:07:40.676Z,175.37
2023-05-05T08:08:40.680Z,172.03
2023-05-05T08:09:40.661Z,168.96
2023-05-05T08:10:40.651Z,166.45
2023-05-05T08:11:40.636Z,168.86
2023-05-05T08:12:40.779Z,173.80
2023-05-05T08:13:40.649Z,166.60
2023-05-05T08:14:40.596Z,170.43
2023-05-05T08:15:40.669Z,176.49
2023-05-05T08:16:40.584Z,173.56
2023-05-05T08:17:40.626Z,178.08
2023-05-05T08:18:40.611Z,176.28
2023-05-05T08:19:40.678Z,174.30
2023-05-05T08:20:40.660Z,169.96
2023-05-05T08:21:40.581Z,170.84
2023-05-05T08:22:40.586Z,167.49
2023-05-05T08:23:40.560Z,164.41
2023-05-05T08:24:40.557Z,163.88
2023-05-05T08:25:40.550Z,165.73
2023-05-05T08:26:40.541Z,161.86
2023-05-05T08:27:40.533Z,166.03
2023-05-05T08:28:40.568Z,163.10
2023-05-05T08:29:40.535Z,166.13
2023-05-05T08:30:40.493Z,168.28
2023-05-05T08:31:40.546Z,169.33
2023-05-05T08:32:40.530Z,172.68
2023-05-05T08:33:40.471Z,171.64
2023-05-05T08:34:40.498Z,170.45
2023-05-05T08:35:40.573Z,168.17
2023-05-05T08:36:40.473Z,176.36
2023-05-05T08:37:40.516Z,180.23
2023-05-05T08:38:40.461Z,170.22
2023-05-05T08:39:40.432Z,163.22
2023-05-05T08:40:40.447Z,157.00
2023-05-05T08:41:40.409Z,148.04
2023-05-05T08:42:40.489Z,150.26
2023-05-05T08:43:40.429Z,150.79
2023-05-05T08:44:40.408Z,151.95
2023-05-05T08:45:40.419Z,143.01
2023-05-05T08:46:40.437Z,140.65
2023-05-05T08:47:40.455Z,140.87
2023-05-05T08:48:40.399Z,139.04
2023-05-05T08:49:40.359Z,137.85
2023-05-05T08:50:40.365Z,138.38
2023-05-05T08:51:40.436Z,137.87
2023-05-05T08:52:40.513Z,136.71
2023-05-05T08:53:40.356Z,137.36
2023-05-05T08:54:40.327Z,127.54
2023-05-05T08:55:40.339Z,127.16
2023-05-05T08:56:40.316Z,126.50
2023-05-05T08:57:40.322Z,122.11
2023-05-05T08:58:40.307Z,125.07
2023-05-05T08:59:40.312Z,120.32
2023-05-05T09:00:40.364Z,119.47
2023-05-05T09:01:40.273Z,123.06
2023-05-05T09:02:40.324Z,122.14
2023-05-05T09:03:40.259Z,123.11
2023-05-05T09:04:40.241Z,111.24
2023-05-05T09:05:40.309Z,110.12
2023-05-05T09:06:40.276Z,105.63
2023-05-05T09:07:40.484Z,104.25
2023-05-05T09:08:40.257Z,102.77
2023-05-05T09:09:40.255Z,101.62
2023-05-05T09:10:40.246Z,102.68
2023-05-05T09:11:40.222Z,100.27
2023-05-05T09:12:40.244Z,98.62
2023-05-05T09:13:40.211Z,96.99
2023-05-05T09:14:40.168Z,94.65
2023-05-05T09:15:40.195Z,91.56
2023-05-05T09:16:40.294Z,88.20
2023-05-05T09:17:40.316Z,85.60
2023-05-05T09:18:40.308Z,84.12
2023-05-05T09:19:40.327Z,76.10
2023-05-05T09:20:40.385Z,72.76
2023-05-05T09:21:40.391Z,74.18
2023-05-05T09:22:40.497Z,74.97
2023-05-05T09:23:40.597Z,74.39
2023-05-05T09:24:40.498Z,71.57
2023-05-05T09:25:40.529Z,70.30
2023-05-05T09:26:40.535Z,70.37
2023-05-05T09:27:41.028Z,68.25
2023-05-05T09:28:40.668Z,68.19
2023-05-05T09:29:40.673Z,64.94
2023-05-05T09:30:40.730Z,66.47
2023-05-05T09:31:40.732Z,73.48
2023-05-05T09:32:41.026Z,85.24
2023-05-05T09:33:40.796Z,113.53
2023-05-05T09:34:40.841Z,122.93
2023-05-05T09:35:40.836Z,126.04
2023-05-05T09:36:40.912Z,136.08
2023-05-05T09:37:40.894Z,139.40
2023-05-05T09:38:40.920Z,136.90
2023-05-05T09:39:40.979Z,139.76
2023-05-05T09:40:40.916Z,147.08
2023-05-05T09:41:40.910Z,164.81
2023-05-05T09:42:41.058Z,164.28
2023-05-05T09:43:40.951Z,166.83
2023-05-05T09:44:40.936Z,163.05
2023-05-05T09:45:40.935Z,181.70
2023-05-05T09:46:40.930Z,198.26
2023-05-05T09:47:40.982Z,210.44
2023-05-05T09:48:40.937Z,205.41
2023-05-05T09:49:40.913Z,206.49
2023-05-05T09:50:40.935Z,218.81
2023-05-05T09:51:40.910Z,224.44
2023-05-05T09:52:40.924Z,235.18
2023-05-05T09:53:41.020Z,239.03
2023-05-05T09:54:41.057Z,247.21
2023-05-05T09:55:41.185Z,246.67
2023-05-05T09:56:41.154Z,250.00
2023-05-05T09:57:41.518Z,248.69
2023-05-05T09:58:41.327Z,248.78
2023-05-05T09:59:41.347Z,249.34
2023-05-05T10:00:41.382Z,249.48
2023-05-05T10:01:41.483Z,247.02
2023-05-05T10:02:41.529Z,250.00
2023-05-05T10:03:41.551Z,247.26
2023-05-05T10:04:41.685Z,246.51
2023-05-05T10:05:41.698Z,247.84
2023-05-05T10:06:41.754Z,244.57
2023-05-05T10:07:41.796Z,244.01
2023-05-05T10:08:41.837Z,247.45
2023-05-05T10:09:41.920Z,250.00
2023-05-05T10:10:41.942Z,244.44
2023-05-05T10:11:42.147Z,244.22
2023-05-05T10:12:42.098Z,246.60
2023-05-05T10:13:42.264Z,248.25
2023-05-05T10:14:42.145Z,249.04
2023-05-05T10:15:42.227Z,244.84
2023-05-05T10:16:42.270Z,250.00
2023-05-05T10:17:50.827Z,250.00
2023-05-05T10:18:43.307Z,250.38
2023-05-05T10:19:42.256Z,250.98
2023-05-05T10:20:42.268Z,253.08
2023-05-05T10:21:42.394Z,255.52
2023-05-05T10:22:42.239Z,258.65
2023-05-05T10:23:42.236Z,248.16
2023-05-05T10:24:42.212Z,246.35
2023-05-05T10:25:42.200Z,243.43
2023-05-05T10:26:42.199Z,241.51
2023-05-05T10:27:42.184Z,245.00
2023-05-05T10:28:42.211Z,249.26
2023-05-05T10:29:42.160Z,244.83
2023-05-05T10:30:42.208Z,248.39
2023-05-05T10:31:42.213Z,249.84
2023-05-05T10:33:42.339Z,247.99
2023-05-05T10:34:42.264Z,247.42
2023-05-05T10:35:42.225Z,248.20
2023-05-05T10:36:42.187Z,239.22
2023-05-05T10:37:42.160Z,240.58
2023-05-05T10:38:42.170Z,247.73
2023-05-05T10:39:42.156Z,244.72
2023-05-05T10:40:42.181Z,235.63
2023-05-05T10:41:42.139Z,242.00
2023-05-05T10:42:42.158Z,233.22
2023-05-05T10:43:42.132Z,231.38
2023-05-05T10:44:42.145Z,234.19
2023-05-05T10:45:42.259Z,235.09
2023-05-05T10:46:42.270Z,231.54
2023-05-05T10:47:42.154Z,224.48
2023-05-05T10:48:42.159Z,287.79
2023-05-05T10:49:42.100Z,265.33
2023-05-05T10:50:42.084Z,266.26
2023-05-05T10:51:42.116Z,265.46
2023-05-05T10:52:42.094Z,239.41
2023-05-05T10:53:42.075Z,232.93
2023-05-05T10:54:42.075Z,236.30
2023-05-05T10:55:42.052Z,231.47
2023-05-05T10:56:42.045Z,216.70
2023-05-05T10:57:42.044Z,210.10
2023-05-05T10:58:58.325Z,205.53
2023-05-05T10:59:43.097Z,205.66
2023-05-05T11:00:42.060Z,203.91
2023-05-05T11:01:42.001Z,197.70
2023-05-05T11:02:42.057Z,195.88
2023-05-05T11:03:42.030Z,190.48
2023-05-05T11:04:41.986Z,190.68
2023-05-05T11:05:41.980Z,195.68
2023-05-05T11:06:41.976Z,192.04
2023-05-05T11:07:42.006Z,187.82
2023-05-05T11:08:41.957Z,182.71
2023-05-05T11:09:41.978Z,182.92
2023-05-05T11:10:41.979Z,186.23
2023-05-05T11:11:41.947Z,186.39
2023-05-05T11:12:41.952Z,185.30
2023-05-05T11:13:41.944Z,180.56
2023-05-05T11:14:41.927Z,176.62
2023-05-05T11:15:42.057Z,178.92
2023-05-05T11:16:42.012Z,181.38
2023-05-05T11:17:41.899Z,176.91
2023-05-05T11:18:41.907Z,177.11
2023-05-05T11:19:41.942Z,177.50
2023-05-05T11:20:41.867Z,178.53
2023-05-05T11:21:41.889Z,176.04
2023-05-05T11:22:41.918Z,168.02
2023-05-05T11:23:41.877Z,168.25
2023-05-05T11:24:41.857Z,166.19
2023-05-05T11:25:41.855Z,168.50
2023-05-05T11:26:41.865Z,165.02
2023-05-05T11:27:41.862Z,167.91
2023-05-05T11:28:42.062Z,172.60
2023-05-05T11:29:41.836Z,172.79
2023-05-05T11:30:41.863Z,172.63
2023-05-05T11:31:41.938Z,162.73
2023-05-05T11:32:41.824Z,163.38
2023-05-05T11:33:42.062Z,147.59
2023-05-05T11:34:41.825Z,128.52
2023-05-05T11:35:41.804Z,125.63
2023-05-05T11:36:41.786Z,112.33
2023-05-05T11:37:41.760Z,104.23
2023-05-05T11:38:41.754Z,96.42
2023-05-05T11:39:41.796Z,106.88
2023-05-05T11:40:41.839Z,90.37
2023-05-05T11:41:41.856Z,84.54
2023-05-05T11:42:41.887Z,81.11
2023-05-05T11:43:41.902Z,82.28
2023-05-05T11:44:41.915Z,82.79
2023-05-05T11:45:41.969Z,82.60
2023-05-05T11:46:42.041Z,77.70
2023-05-05T11:47:42.132Z,76.38
2023-05-05T11:48:42.124Z,76.95
2023-05-05T11:49:42.128Z,70.22
2023-05-05T11:50:42.187Z,70.10
2023-05-05T11:51:42.237Z,64.53
2023-05-05T11:52:42.259Z,70.38
2023-05-05T11:53:42.309Z,72.11
2023-05-05T11:54:42.351Z,73.14
2023-05-05T11:55:42.400Z,64.72
2023-05-05T11:56:42.446Z,63.98
2023-05-05T11:57:42.478Z,51.31
2023-05-05T11:58:42.527Z,51.01
2023-05-05T11:59:42.552Z,48.99
2023-05-05T12:00:42.629Z,46.63
2023-05-05T12:01:42.638Z,46.76
2023-05-05T12:02:42.789Z,39.08
2023-05-05T12:03:42.955Z,35.36
2023-05-05T12:04:42.832Z,33.30
2023-05-05T12:05:42.873Z,35.44
2023-05-05T12:06:42.932Z,32.12
2023-05-05T12:07:43.021Z,36.35
2023-05-05T12:08:43.074Z,37.08
2023-05-05T12:09:43.108Z,30.56
2023-05-05T12:10:43.165Z,31.96
2023-05-05T12:11:43.276Z,28.59
2023-05-05T12:12:43.326Z,27.15
2023-05-05T12:13:43.353Z,31.57
2023-05-05T12:14:43.399Z,28.74
2023-05-05T12:15:43.474Z,25.00
2023-05-05T12:16:43.544Z,24.89
2023-05-05T12:17:43.631Z,23.28
2023-05-05T12:18:43.664Z,26.08
2023-05-05T12:19:43.919Z,27.99
2023-05-05T12:20:43.800Z,29.63
2023-05-05T12:21:43.820Z,27.38
2023-05-05T12:22:43.869Z,29.21
2023-05-05T12:23:43.954Z,28.60
2023-05-05T12:24:43.973Z,25.00
2023-05-05T12:25:44.069Z,25.07
2023-05-05T12:26:44.125Z,27.30
2023-05-05T12:27:44.157Z,24.95
2023-05-05T12:28:44.233Z,25.00
2023-05-05T12:29:44.258Z,25.00
2023-05-05T12:30:44.329Z,28.16
2023-05-05T12:31:44.431Z,28.27
2023-05-05T12:32:44.538Z,31.05
2023-05-05T12:33:44.437Z,46.49
2023-05-05T12:34:44.463Z,36.64
2023-05-05T12:35:44.509Z,36.17
2023-05-05T12:36:44.528Z,31.16
2023-05-05T12:37:44.526Z,30.76
2023-05-05T12:38:44.591Z,30.21
2023-05-05T12:39:44.611Z,31.96
2023-05-05T12:40:44.723Z,36.17
2023-05-05T12:41:44.655Z,37.57
2023-05-05T12:42:46.281Z,35.44
2023-05-05T12:43:44.757Z,30.85